Las Vegas, NV (89117)

9:03 AM PDT on September 02, 2014 (GMT -0700)
Summerlin South, Willow Springs | Change Station
CLOSE
Current Station
Personal Weather Station
Location: Las Vegas, NV
Elevation: 2969 ft
Nearby Weather Stations

Elev 2969 ft 36.14 °N, 115.33 °W | Updated 5 minutes ago

Clear
Clear
83.1 °F
Feels Like 81 °F
N
0.0
Wind Variable Wind from NW

Today
High -- | Low -- °F
--% Chance of Precip.
Yesterday
High -- | Low -- °F
Precip. -- in
6:13 AM 7:07 PM
First Quarter, 52% visible
Pressure 29.75 in
Visibility 10.0 miles
Clouds Clear
Heat Index 81 °F
Dew Point 45 °F
Humidity 26%
Rainfall 0.00 in
Snow Depth Not available.
UV 3 out of 12
Pollen 7.50 out of 12
Ozone Good
PM2.5 Good
Flu Activity Not available.
METAR KLAS 021556Z 20007KT 10SM CLR 31/02 A2985 RMK AO2 SLP075 T03110022

More Conditions Fewer Conditions

Pressure 29.75 in
Visibility 10.0 miles
Clouds Clear
Heat Index 81 °F
Dew Point 45 °F
Humidity 26%
Rainfall 0.00 in
Snow Depth Not available.
UV 3 out of 12
Pollen 7.50 out of 12
Ozone Good
PM2.5 Good
Flu Activity Not available.
METAR KLAS 021556Z 20007KT 10SM CLR 31/02 A2985 RMK AO2 SLP075 T03110022

More Conditions Fewer Conditions

10-Day Weather Forecast

Almanac

Astronomy

Sep. 02, 2014 Rise Set
Actual Time 6:13 AM PDT 7:07 PM PDT
Civil Twilight 5:47 AM PDT 7:33 PM PDT
Nautical Twilight 5:16 AM PDT 8:04 PM PDT
Astronomical Twilight 4:44 AM PDT 8:36 PM PDT
Moon 1:49 PM PDT No Moon Set
Length of Visible Light 13h 46m
Length of Day
12h 53m
Tomorrow will be 2m 13s shorter.
First Quarter, 52% of the Moon is Illuminated
Today
First Quarter
Sep 8
Full
Sep 15
Last Quarter
Sep 24
New
Oct 1
First Quarter

Today's Extremes

State Highs State Lows

Community

WunderPhotos

Upload Photos

1,749,706 photos uploaded!

Nearby

Air Quality

  Air Quality AQ Index Pollutant
Yesterday Good
OZONE
Yesterday Good
PM10
Current Good
PM2.5
Current Good
OZONE
Tuesday Moderate
OZONE
Tuesday Good
PM10
Wednesday Moderate
OZONE
Wednesday Good
PM10

Snow Depth

Station Depth Elevation
Diamond Peak 1 in 8000 ft
Big Creek Summit 0 in 8700 ft
Green Mountain 0 in 8000 ft
Lewis Peak 0 in 7400 ft
Lamoille #3 0 in 7700 ft

Earthquake Activity

City Distance Mag. Time & Date
Goldfield, Nevada 135 miles 2.7 7:38 PM PDT
2014-08-30
Minimum magnitude displayed is 2.5.

Coastal Water Temperatures

Place Temperature
No Stations Reporting

Nearby Weather Stations